Time;durP1;ratioP1;P1;durP2;ratioP2;P2;SDS_P1;SDS_P2;PMS_P1;PMS_P2;Temp;Humidity;BMP_temperature;BMP_pressure;BME280_temperature;BME280_humidity;BME280_pressure;Samples;Min_cycle;Max_cycle;Signal;HPM_P1;HPM_P2
2022/11/10 00:00:19;;;;;;;5.38;2.40;;;;;;;;;;5009043;28;20029;-77
2022/11/10 00:02:45;;;;;;;5.53;2.55;;;;;;;;;;5026447;28;20380;-76
2022/11/10 00:05:12;;;;;;;7.00;2.50;;;;;;;;;;5008600;28;20091;-75
2022/11/10 00:07:39;;;;;;;6.13;2.60;;;;;;;;;;5026215;28;20046;-76
2022/11/10 00:10:06;;;;;;;7.57;2.53;;;;;;;;;;5026279;28;20260;-76
2022/11/10 00:12:32;;;;;;;6.57;2.67;;;;;;;;;;5026190;28;20033;-75
2022/11/10 00:17:42;;;;;;;8.27;2.63;;;;;;;;;;5023808;28;20675;-75
2022/11/10 00:20:08;;;;;;;5.47;2.20;;;;;;;;;;5022905;28;20037;-75
2022/11/10 00:22:35;;;;;;;8.02;2.58;;;;;;;;;;5023073;28;20079;-75
2022/11/10 00:25:01;;;;;;;5.80;2.80;;;;;;;;;;5020711;28;20022;-76
2022/11/10 00:27:26;;;;;;;5.63;2.22;;;;;;;;;;5017229;28;20033;-78
2022/11/10 00:29:52;;;;;;;4.90;2.28;;;;;;;;;;5016477;28;20030;-75
2022/11/10 00:32:17;;;;;;;4.80;2.35;;;;;;;;;;4995198;28;20025;-76
2022/11/10 00:34:43;;;;;;;5.70;2.30;;;;;;;;;;4995607;28;20029;-76
2022/11/10 00:37:08;;;;;;;5.35;2.17;;;;;;;;;;5013054;28;20053;-76
2022/11/10 00:39:34;;;;;;;4.25;2.20;;;;;;;;;;5014753;28;20026;-76
2022/11/10 00:41:59;;;;;;;4.75;2.20;;;;;;;;;;5012738;28;20034;-77
2022/11/10 00:44:25;;;;;;;4.47;2.30;;;;;;;;;;5012867;28;20621;-76
2022/11/10 00:46:50;;;;;;;5.85;2.17;;;;;;;;;;5017430;28;20032;-76
2022/11/10 00:49:15;;;;;;;5.38;2.25;;;;;;;;;;5018156;28;20026;-76
2022/11/10 00:51:41;;;;;;;3.97;1.92;;;;;;;;;;5012880;28;20069;-77
2022/11/10 00:54:07;;;;;;;5.47;2.30;;;;;;;;;;5012961;28;20026;-76
2022/11/10 00:56:32;;;;;;;8.00;2.35;;;;;;;;;;5015309;28;20022;-77
2022/11/10 00:58:58;;;;;;;7.20;2.30;;;;;;;;;;5021928;28;20029;-77
2022/11/10 01:01:24;;;;;;;6.82;2.35;;;;;;;;;;5002348;28;20232;-76
2022/11/10 01:03:50;;;;;;;4.78;2.00;;;;;;;;;;5017244;28;20046;-76
2022/11/10 01:06:17;;;;;;;4.18;2.10;;;;;;;;;;5022079;28;20033;-76
2022/11/10 01:08:43;;;;;;;7.40;2.20;;;;;;;;;;5022348;28;20097;-77
2022/11/10 01:11:16;;;;;;;4.78;2.00;;;;;;;;;;5004408;28;20215;-76
2022/11/10 01:13:43;;;;;;;4.18;1.95;;;;;;;;;;5022637;28;20046;-77
2022/11/10 01:16:20;;;;;;;5.43;2.10;;;;;;;;;;5021876;28;20026;-78
2022/11/10 01:18:51;;;;;;;6.57;2.13;;;;;;;;;;5004626;28;20022;-76
2022/11/10 01:21:17;;;;;;;5.40;2.00;;;;;;;;;;5022482;28;20064;-76
2022/11/10 01:23:42;;;;;;;6.18;2.40;;;;;;;;;;5022619;28;20057;-76
2022/11/10 01:26:08;;;;;;;9.90;2.47;;;;;;;;;;5022080;28;20049;-76
2022/11/10 01:28:35;;;;;;;7.43;2.80;;;;;;;;;;5004171;28;20053;-76
2022/11/10 01:31:06;;;;;;;8.05;2.85;;;;;;;;;;5014344;28;20317;-76
2022/11/10 01:33:31;;;;;;;;;;;;;;;;;;5016737;28;20037;-78
2022/11/10 01:35:57;;;;;;;6.07;2.80;;;;;;;;;;5012250;28;19959;-77
2022/11/10 01:38:26;;;;;;;9.80;3.00;;;;;;;;;;4994399;28;20025;-76
2022/11/10 01:40:51;;;;;;;5.25;2.80;;;;;;;;;;5018651;28;20090;-76
2022/11/10 01:43:17;;;;;;;6.75;3.00;;;;;;;;;;5028538;28;20045;-76
2022/11/10 01:45:55;;;;;;;5.43;2.70;;;;;;;;;;5032893;28;20033;-77
2022/11/10 01:48:39;;;;;;;6.97;2.95;;;;;;;;;;5031303;28;20029;-77
2022/11/10 01:51:14;;;;;;;5.05;2.38;;;;;;;;;;5034043;28;20092;-76
2022/11/10 01:53:42;;;;;;;5.47;2.40;;;;;;;;;;5013433;28;20057;-76
2022/11/10 01:56:10;;;;;;;5.22;2.58;;;;;;;;;;5015802;28;20029;-76
2022/11/10 01:58:41;;;;;;;7.40;2.47;;;;;;;;;;5030823;28;20025;-75
2022/11/10 02:01:08;;;;;;;7.03;2.40;;;;;;;;;;5033160;28;20547;-76
2022/11/10 02:03:42;;;;;;;5.25;2.17;;;;;;;;;;5031375;28;20508;-76
2022/11/10 02:06:09;;;;;;;6.68;2.53;;;;;;;;;;5034203;28;20069;-77
2022/11/10 02:08:35;;;;;;;4.60;2.05;;;;;;;;;;5031902;28;20060;-75
2022/11/10 02:11:01;;;;;;;7.78;2.10;;;;;;;;;;4999552;28;20052;-75
2022/11/10 02:13:26;;;;;;;5.28;2.03;;;;;;;;;;5012718;28;20052;-75
2022/11/10 02:15:52;;;;;;;4.53;2.00;;;;;;;;;;5031037;28;20025;-76
2022/11/10 02:18:17;;;;;;;3.97;2.00;;;;;;;;;;5013229;28;20034;-75
2022/11/10 02:20:44;;;;;;;4.25;2.08;;;;;;;;;;5013209;28;20484;-76
2022/11/10 02:23:13;;;;;;;5.65;1.90;;;;;;;;;;5012896;28;20025;-77
2022/11/10 02:25:38;;;;;;;5.57;1.90;;;;;;;;;;5030726;28;20061;-76
2022/11/10 02:28:04;;;;;;;5.60;2.22;;;;;;;;;;5030464;28;20556;-76
2022/11/10 02:30:29;;;;;;;6.40;2.28;;;;;;;;;;5015902;28;20026;-77
2022/11/10 02:32:54;;;;;;;6.43;2.00;;;;;;;;;;5012891;28;20090;-77
2022/11/10 02:35:20;;;;;;;5.30;1.90;;;;;;;;;;5034935;28;20086;-76
2022/11/10 02:37:45;;;;;;;5.05;1.90;;;;;;;;;;5035227;28;20025;-77
2022/11/10 02:40:11;;;;;;;5.82;1.90;;;;;;;;;;5019344;28;20077;-77
2022/11/10 02:42:36;;;;;;;5.82;1.83;;;;;;;;;;5030518;28;20029;-77
2022/11/10 02:45:02;;;;;;;5.93;2.10;;;;;;;;;;5037003;28;20420;-79
2022/11/10 02:47:27;;;;;;;5.00;2.00;;;;;;;;;;5022880;28;20028;-79
2022/11/10 02:49:53;;;;;;;6.15;2.20;;;;;;;;;;5041062;28;20068;-79
2022/11/10 02:52:18;;;;;;;3.85;1.95;;;;;;;;;;5031995;28;20099;-80
2022/11/10 02:54:43;;;;;;;3.67;1.80;;;;;;;;;;5039014;28;20025;-80
2022/11/10 02:57:09;;;;;;;7.82;1.92;;;;;;;;;;5040344;28;20309;-76
2022/11/10 02:59:34;;;;;;;3.80;2.00;;;;;;;;;;5022916;28;20036;-77
2022/11/10 03:02:00;;;;;;;6.28;2.13;;;;;;;;;;5022030;28;20618;-76
2022/11/10 03:04:25;;;;;;;9.10;2.15;;;;;;;;;;5039570;28;20038;-76
2022/11/10 03:06:50;;;;;;;5.45;1.83;;;;;;;;;;5019021;28;20032;-76
2022/11/10 03:09:16;;;;;;;4.70;1.90;;;;;;;;;;5022585;28;20025;-76
2022/11/10 03:11:41;;;;;;;6.70;2.33;;;;;;;;;;5018986;28;20040;-75
2022/11/10 03:14:06;;;;;;;4.68;2.25;;;;;;;;;;5040207;28;20021;-76
2022/11/10 03:16:32;;;;;;;5.70;2.05;;;;;;;;;;5022708;28;20048;-75
2022/11/10 03:18:58;;;;;;;6.90;2.10;;;;;;;;;;5039623;28;20041;-75
2022/11/10 03:21:23;;;;;;;5.65;2.22;;;;;;;;;;5039685;28;20034;-76
2022/11/10 03:23:49;;;;;;;6.82;2.30;;;;;;;;;;5022695;28;20029;-75
2022/11/10 03:26:14;;;;;;;5.60;2.20;;;;;;;;;;5040847;28;20309;-78
2022/11/10 03:28:39;;;;;;;4.85;2.13;;;;;;;;;;5015267;28;20393;-76
2022/11/10 03:31:05;;;;;;;3.35;2.00;;;;;;;;;;5030068;28;20045;-76
2022/11/10 03:33:30;;;;;;;6.80;2.50;;;;;;;;;;5020496;28;20025;-77
2022/11/10 03:35:56;;;;;;;6.50;2.30;;;;;;;;;;5032937;28;20486;-76
2022/11/10 03:38:21;;;;;;;5.80;2.22;;;;;;;;;;5029699;28;20025;-77
2022/11/10 03:40:49;;;;;;;7.18;2.42;;;;;;;;;;5029711;28;20068;-76
2022/11/10 03:43:14;;;;;;;5.72;2.22;;;;;;;;;;5029549;28;20116;-77
2022/11/10 03:45:43;;;;;;;6.10;2.28;;;;;;;;;;5030432;28;20533;-77
2022/11/10 03:48:08;;;;;;;3.83;2.08;;;;;;;;;;5029544;28;20036;-76
2022/11/10 03:50:34;;;;;;;6.28;2.65;;;;;;;;;;5012219;28;20037;-77
2022/11/10 03:52:59;;;;;;;5.38;2.25;;;;;;;;;;5029587;28;20025;-76
2022/11/10 03:55:24;;;;;;;5.47;2.70;;;;;;;;;;5029683;28;20521;-77
2022/11/10 03:57:51;;;;;;;4.70;2.60;;;;;;;;;;5029387;28;20088;-77
2022/11/10 04:00:16;;;;;;;7.20;2.47;;;;;;;;;;5029602;28;20528;-77
2022/11/10 04:02:42;;;;;;;9.05;2.55;;;;;;;;;;5030147;28;20030;-76
2022/11/10 04:10:43;;;;;;;5.20;2.35;;;;;;;;;;5033342;28;20036;-77
2022/11/10 04:15:52;;;;;;;4.63;2.67;;;;;;;;;;5033770;28;20587;-76
2022/11/10 04:18:23;;;;;;;8.13;2.88;;;;;;;;;;5015492;28;20528;-75
2022/11/10 04:20:49;;;;;;;5.07;2.50;;;;;;;;;;5033580;28;20116;-76
2022/11/10 04:23:28;;;;;;;6.05;2.58;;;;;;;;;;5035593;28;20037;-76
2022/11/10 04:28:37;;;;;;;6.47;2.53;;;;;;;;;;5034283;28;20538;-75
2022/11/10 04:31:03;;;;;;;5.05;2.72;;;;;;;;;;5043477;28;20109;-76
2022/11/10 04:33:28;;;;;;;4.43;2.58;;;;;;;;;;5023915;28;20436;-75
2022/11/10 04:35:53;;;;;;;7.43;2.92;;;;;;;;;;5043070;28;20028;-76
2022/11/10 04:38:19;;;;;;;6.32;2.55;;;;;;;;;;5042573;28;20100;-76
2022/11/10 04:40:44;;;;;;;7.13;2.83;;;;;;;;;;5042648;28;20229;-75
2022/11/10 04:43:10;;;;;;;6.60;2.60;;;;;;;;;;5038781;28;20029;-76
2022/11/10 04:45:35;;;;;;;7.35;2.92;;;;;;;;;;5036730;28;20021;-75
2022/11/10 04:48:00;;;;;;;5.97;2.67;;;;;;;;;;5043006;28;20017;-76
2022/11/10 04:50:26;;;;;;;5.88;2.50;;;;;;;;;;5021257;28;20431;-75
2022/11/10 04:52:51;;;;;;;4.22;2.40;;;;;;;;;;5040453;28;20160;-76
2022/11/10 04:55:16;;;;;;;6.47;2.78;;;;;;;;;;5042710;28;20216;-80
2022/11/10 04:57:42;;;;;;;5.57;2.63;;;;;;;;;;5042426;28;20026;-80
2022/11/10 05:00:09;;;;;;;5.47;2.80;;;;;;;;;;5041876;28;20049;-81
2022/11/10 05:02:35;;;;;;;5.03;3.03;;;;;;;;;;5042770;28;20477;-80
2022/11/10 05:05:02;;;;;;;8.10;2.78;;;;;;;;;;5042742;28;20052;-80
2022/11/10 05:07:27;;;;;;;9.00;2.60;;;;;;;;;;5042150;28;20091;-81
2022/11/10 05:09:53;;;;;;;4.95;2.72;;;;;;;;;;5021130;28;20101;-81
2022/11/10 05:12:19;;;;;;;7.95;2.50;;;;;;;;;;5022587;28;20049;-77
2022/11/10 05:14:44;;;;;;;6.65;2.35;;;;;;;;;;5020846;28;20080;-78
2022/11/10 05:17:09;;;;;;;5.45;2.30;;;;;;;;;;5018566;28;20076;-75
2022/11/10 05:19:38;;;;;;;8.18;2.67;;;;;;;;;;5020996;28;20029;-75
2022/11/10 05:22:05;;;;;;;5.45;2.40;;;;;;;;;;5020647;28;20097;-75
2022/11/10 05:24:31;;;;;;;6.03;2.50;;;;;;;;;;5020856;28;20032;-75
2022/11/10 05:26:56;;;;;;;6.82;2.60;;;;;;;;;;5022160;28;20022;-75
2022/11/10 05:29:21;;;;;;;7.60;2.30;;;;;;;;;;5021867;28;20040;-78
2022/11/10 05:31:47;;;;;;;5.70;2.25;;;;;;;;;;5022555;28;20097;-77
2022/11/10 05:34:13;;;;;;;6.70;2.20;;;;;;;;;;5022543;28;20103;-78
2022/11/10 05:36:38;;;;;;;7.20;2.20;;;;;;;;;;5021829;28;20046;-80
2022/11/10 05:39:04;;;;;;;5.38;2.13;;;;;;;;;;5015392;28;20022;-79
2022/11/10 05:41:29;;;;;;;5.72;2.10;;;;;;;;;;5016075;28;20033;-76
2022/11/10 05:43:55;;;;;;;6.18;2.10;;;;;;;;;;5018078;28;20030;-80
2022/11/10 05:46:20;;;;;;;6.85;2.10;;;;;;;;;;5020355;28;20068;-79
2022/11/10 05:48:46;;;;;;;6.93;2.40;;;;;;;;;;5022154;28;20032;-82
2022/11/10 05:51:11;;;;;;;5.30;2.05;;;;;;;;;;5022267;28;20041;-81
2022/11/10 05:53:37;;;;;;;8.80;2.30;;;;;;;;;;5022302;28;20022;-83
2022/11/10 05:56:03;;;;;;;6.88;2.17;;;;;;;;;;5019862;28;20291;-82
2022/11/10 05:58:28;;;;;;;6.22;2.20;;;;;;;;;;5020638;28;20044;-75
2022/11/10 06:00:54;;;;;;;7.97;2.13;;;;;;;;;;5021310;28;20359;-76
2022/11/10 06:03:19;;;;;;;8.38;2.47;;;;;;;;;;5021676;28;20057;-75
2022/11/10 06:05:45;;;;;;;8.35;2.20;;;;;;;;;;5021343;28;20382;-75
2022/11/10 06:08:11;;;;;;;5.43;2.33;;;;;;;;;;5022192;28;20148;-75
2022/11/10 06:10:37;;;;;;;6.47;2.40;;;;;;;;;;5020391;28;20022;-76
2022/11/10 06:13:03;;;;;;;6.93;2.13;;;;;;;;;;5021507;28;20425;-76
2022/11/10 06:15:29;;;;;;;11.10;2.45;;;;;;;;;;5021075;28;20052;-77
2022/11/10 06:17:54;;;;;;;7.18;2.38;;;;;;;;;;5021060;28;20318;-76
2022/11/10 06:20:21;;;;;;;7.53;2.22;;;;;;;;;;5020650;28;20129;-79
2022/11/10 06:23:08;;;;;;;7.28;2.10;;;;;;;;;;5020284;28;20046;-75
2022/11/10 06:25:35;;;;;;;6.03;2.20;;;;;;;;;;5021391;28;20270;-75
2022/11/10 06:28:01;;;;;;;6.80;2.15;;;;;;;;;;5020148;28;20050;-77
2022/11/10 06:30:28;;;;;;;6.43;2.03;;;;;;;;;;5020941;28;20226;-76
2022/11/10 06:32:54;;;;;;;6.18;2.00;;;;;;;;;;5021667;28;20041;-75
2022/11/10 06:35:20;;;;;;;6.07;2.00;;;;;;;;;;5021059;28;20030;-78
2022/11/10 06:37:55;;;;;;;8.93;2.15;;;;;;;;;;5020701;28;20030;-76
2022/11/10 06:40:21;;;;;;;7.45;1.95;;;;;;;;;;5020295;28;20033;-76
2022/11/10 06:42:46;;;;;;;7.93;2.30;;;;;;;;;;5020985;28;20199;-77
2022/11/10 06:45:11;;;;;;;6.28;2.35;;;;;;;;;;5021368;28;20025;-77
2022/11/10 06:47:37;;;;;;;6.13;2.25;;;;;;;;;;5020740;28;20026;-79
2022/11/10 06:50:02;;;;;;;10.27;2.60;;;;;;;;;;5019951;28;20037;-76
2022/11/10 06:52:30;;;;;;;7.63;2.35;;;;;;;;;;5020749;28;20018;-75
2022/11/10 06:54:55;;;;;;;9.40;2.60;;;;;;;;;;5020371;28;20026;-76
2022/11/10 06:57:21;;;;;;;7.03;2.67;;;;;;;;;;5020684;28;20247;-79
2022/11/10 06:59:46;;;;;;;7.05;2.70;;;;;;;;;;5020127;28;20036;-79
2022/11/10 07:02:15;;;;;;;8.80;2.92;;;;;;;;;;5019793;28;20029;-81
2022/11/10 07:04:44;;;;;;;8.18;2.58;;;;;;;;;;5019927;28;20050;-78
2022/11/10 07:07:10;;;;;;;10.73;3.10;;;;;;;;;;5019234;28;20088;-78
2022/11/10 07:09:36;;;;;;;6.95;2.67;;;;;;;;;;5020439;28;20021;-79
2022/11/10 07:12:03;;;;;;;8.68;3.05;;;;;;;;;;5018517;28;20057;-76
2022/11/10 07:14:29;;;;;;;8.80;3.10;;;;;;;;;;5019038;28;20033;-79
2022/11/10 07:16:54;;;;;;;11.23;3.30;;;;;;;;;;5020003;28;20106;-75
2022/11/10 07:19:23;;;;;;;10.32;3.00;;;;;;;;;;5020536;28;20026;-75
2022/11/10 07:21:48;;;;;;;7.35;2.88;;;;;;;;;;5020544;28;20049;-75
2022/11/10 07:24:14;;;;;;;13.05;3.47;;;;;;;;;;5020959;28;20042;-75
2022/11/10 07:26:39;;;;;;;10.45;3.50;;;;;;;;;;5021056;28;20202;-75
2022/11/10 07:29:04;;;;;;;9.93;3.75;;;;;;;;;;5018812;28;20038;-75
2022/11/10 07:31:30;;;;;;;10.48;3.58;;;;;;;;;;5018370;28;20030;-75
2022/11/10 07:33:55;;;;;;;12.20;3.90;;;;;;;;;;5020162;28;20320;-76
2022/11/10 07:36:20;;;;;;;13.43;3.90;;;;;;;;;;5020494;28;20049;-75
2022/11/10 07:38:46;;;;;;;16.85;4.03;;;;;;;;;;5018770;28;20037;-75
2022/11/10 07:41:11;;;;;;;9.75;3.55;;;;;;;;;;5016716;28;20053;-75
2022/11/10 07:43:37;;;;;;;9.82;3.72;;;;;;;;;;5017564;28;20022;-75
2022/11/10 07:46:02;;;;;;;9.60;3.40;;;;;;;;;;5012876;28;20029;-78
2022/11/10 07:48:27;;;;;;;15.43;3.80;;;;;;;;;;5013413;28;20022;-75
2022/11/10 07:50:53;;;;;;;11.77;3.60;;;;;;;;;;5013451;28;20105;-75
2022/11/10 07:53:19;;;;;;;10.75;3.80;;;;;;;;;;5013875;28;20022;-75
2022/11/10 07:55:45;;;;;;;13.20;3.70;;;;;;;;;;5013390;28;20034;-75
2022/11/10 07:58:13;;;;;;;9.95;3.42;;;;;;;;;;5013198;28;20033;-75
2022/11/10 08:00:39;;;;;;;9.43;3.63;;;;;;;;;;5013075;28;20021;-75
2022/11/10 08:03:09;;;;;;;12.23;3.42;;;;;;;;;;5013426;28;20560;-74
2022/11/10 08:05:34;;;;;;;14.65;3.60;;;;;;;;;;5020527;28;20069;-78
2022/11/10 08:08:00;;;;;;;11.52;3.33;;;;;;;;;;5023989;28;20210;-77
2022/11/10 08:10:27;;;;;;;8.85;3.67;;;;;;;;;;5022945;28;20325;-77
2022/11/10 08:12:57;;;;;;;10.45;3.42;;;;;;;;;;5022432;28;20108;-77
2022/11/10 08:15:24;;;;;;;12.13;3.53;;;;;;;;;;5023180;28;20033;-77
2022/11/10 08:17:50;;;;;;;12.77;3.83;;;;;;;;;;5022015;28;20057;-76
2022/11/10 08:20:16;;;;;;;16.27;3.83;;;;;;;;;;5023070;28;20079;-78
2022/11/10 08:22:42;;;;;;;12.93;4.13;;;;;;;;;;5021512;28;20284;-77
2022/11/10 08:25:08;;;;;;;13.10;4.57;;;;;;;;;;5023247;28;20378;-77
2022/11/10 08:27:33;;;;;;;14.73;4.03;;;;;;;;;;5023899;28;20018;-78
2022/11/10 08:29:59;;;;;;;12.05;4.38;;;;;;;;;;5022302;28;20543;-76
2022/11/10 08:32:24;;;;;;;11.40;4.20;;;;;;;;;;5022330;28;20494;-80
2022/11/10 08:34:50;;;;;;;14.60;4.82;;;;;;;;;;5022851;28;20033;-79
2022/11/10 08:37:15;;;;;;;14.27;4.00;;;;;;;;;;5022283;28;20029;-81
2022/11/10 08:39:41;;;;;;;17.85;4.63;;;;;;;;;;5022695;28;20030;-83
2022/11/10 08:42:06;;;;;;;13.27;4.18;;;;;;;;;;5021760;28;20317;-76
2022/11/10 08:44:31;;;;;;;15.32;4.15;;;;;;;;;;5023715;28;20121;-82
2022/11/10 08:46:57;;;;;;;14.45;4.15;;;;;;;;;;5022233;28;20089;-81
2022/11/10 08:49:22;;;;;;;10.45;4.03;;;;;;;;;;5022739;28;20057;-83
2022/11/10 08:51:47;;;;;;;14.95;4.10;;;;;;;;;;5021071;28;20037;-81
2022/11/10 08:54:13;;;;;;;10.32;3.95;;;;;;;;;;5022937;28;20071;-81
2022/11/10 08:56:39;;;;;;;13.02;4.03;;;;;;;;;;5022802;28;20105;-81
2022/11/10 08:59:04;;;;;;;15.65;4.13;;;;;;;;;;5022138;28;20029;-81
2022/11/10 09:01:29;;;;;;;17.48;4.25;;;;;;;;;;5022091;28;20026;-79
2022/11/10 09:03:55;;;;;;;13.50;4.13;;;;;;;;;;5021668;28;20210;-76
2022/11/10 09:06:20;;;;;;;15.68;4.57;;;;;;;;;;5021954;28;20041;-76
2022/11/10 09:08:45;;;;;;;14.18;4.95;;;;;;;;;;5021548;28;20029;-74
2022/11/10 09:11:12;;;;;;;13.77;5.10;;;;;;;;;;5021228;28;20477;-74
2022/11/10 09:13:37;;;;;;;11.60;5.07;;;;;;;;;;5037458;28;20069;-76
2022/11/10 09:16:04;;;;;;;12.02;4.20;;;;;;;;;;5021686;28;20073;-78
2022/11/10 09:18:29;;;;;;;13.25;4.75;;;;;;;;;;5020215;28;20145;-75
2022/11/10 09:20:55;;;;;;;12.02;4.53;;;;;;;;;;5020679;28;20334;-77
2022/11/10 09:23:21;;;;;;;17.45;4.97;;;;;;;;;;5019253;28;20321;-77
2022/11/10 09:25:52;;;;;;;14.65;4.80;;;;;;;;;;5020290;28;20022;-77
2022/11/10 09:28:18;;;;;;;17.63;4.78;;;;;;;;;;5021577;28;20030;-75
2022/11/10 09:30:46;;;;;;;10.05;4.40;;;;;;;;;;5022516;28;20030;-75
2022/11/10 09:33:11;;;;;;;12.32;4.53;;;;;;;;;;5011982;28;20525;-75
2022/11/10 09:35:37;;;;;;;10.65;4.30;;;;;;;;;;5013258;28;20136;-75
2022/11/10 09:38:03;;;;;;;11.93;4.32;;;;;;;;;;5018105;28;20030;-75
2022/11/10 09:40:40;;;;;;;13.00;4.53;;;;;;;;;;5011906;28;20490;-74
2022/11/10 09:43:12;;;;;;;12.07;4.45;;;;;;;;;;5017725;28;20103;-74
2022/11/10 09:45:43;;;;;;;10.77;4.53;;;;;;;;;;5019741;28;20115;-74
2022/11/10 09:48:19;;;;;;;14.95;4.70;;;;;;;;;;5021569;28;20084;-75
2022/11/10 09:51:08;;;;;;;10.00;4.20;;;;;;;;;;5016296;28;20548;-76
2022/11/10 09:53:39;;;;;;;12.50;4.88;;;;;;;;;;5021297;28;20033;-80
2022/11/10 09:56:11;;;;;;;14.50;4.40;;;;;;;;;;5016440;28;20034;-84
2022/11/10 09:58:44;;;;;;;14.40;5.47;;;;;;;;;;5012845;28;20052;-78
2022/11/10 10:01:44;;;;;;;15.48;5.18;;;;;;;;;;5015338;28;20037;-75
2022/11/10 10:04:18;;;;;;;13.65;5.28;;;;;;;;;;5011253;28;20049;-77
2022/11/10 10:07:17;;;;;;;12.45;4.68;;;;;;;;;;5011262;28;20033;-76
2022/11/10 10:10:00;;;;;;;11.50;4.22;;;;;;;;;;4999597;28;20260;-75
2022/11/10 10:12:44;;;;;;;15.00;4.38;;;;;;;;;;5010718;28;20034;-75
2022/11/10 10:15:34;;;;;;;13.43;4.32;;;;;;;;;;5011231;28;20033;-75
2022/11/10 10:18:24;;;;;;;15.13;4.60;;;;;;;;;;5010680;28;20033;-77
2022/11/10 10:21:26;;;;;;;13.75;4.50;;;;;;;;;;5012113;28;20037;-75
2022/11/10 10:23:54;;;;;;;14.13;3.22;;;;;;;;;;5009250;28;20132;-74
2022/11/10 10:26:27;;;;;;;16.63;4.70;;;;;;;;;;5012289;28;20101;-75
2022/11/10 10:28:54;;;;;;;14.55;4.20;;;;;;;;;;5011715;28;20370;-74
2022/11/10 10:31:32;;;;;;;16.15;4.32;;;;;;;;;;5011906;28;20061;-73
2022/11/10 10:33:58;;;;;;;13.52;5.32;;;;;;;;;;4992519;28;20030;-74
2022/11/10 10:36:29;;;;;;;14.23;5.40;;;;;;;;;;5010557;28;20029;-73
2022/11/10 10:39:10;;;;;;;12.60;4.80;;;;;;;;;;4993691;28;20451;-74
2022/11/10 10:41:37;;;;;;;14.57;4.88;;;;;;;;;;5012938;28;20033;-73
2022/11/10 10:44:17;;;;;;;14.07;4.63;;;;;;;;;;5012601;28;20014;-74
2022/11/10 10:46:47;;;;;;;12.50;4.93;;;;;;;;;;4999297;28;20037;-73
2022/11/10 10:49:25;;;;;;;13.73;4.43;;;;;;;;;;5018494;28;20309;-74
2022/11/10 10:52:12;;;;;;;12.68;4.00;;;;;;;;;;5018541;28;20088;-73
2022/11/10 10:54:39;;;;;;;10.15;3.75;;;;;;;;;;5000273;28;20029;-73
2022/11/10 10:57:28;;;;;;;13.07;4.10;;;;;;;;;;5019254;28;20029;-75
2022/11/10 11:00:14;;;;;;;12.48;4.30;;;;;;;;;;5016470;28;20026;-74
2022/11/10 11:02:39;;;;;;;13.73;3.88;;;;;;;;;;4995891;28;20034;-74
2022/11/10 11:05:15;;;;;;;10.90;3.00;;;;;;;;;;5014016;28;20165;-74
2022/11/10 11:07:40;;;;;;;9.63;3.00;;;;;;;;;;5010111;28;20037;-73
2022/11/10 11:10:27;;;;;;;15.07;3.50;;;;;;;;;;4990074;28;20030;-75
2022/11/10 11:12:53;;;;;;;7.10;2.95;;;;;;;;;;5004432;28;20041;-75
2022/11/10 11:15:29;;;;;;;9.25;2.90;;;;;;;;;;5014515;28;20022;-75
2022/11/10 11:17:59;;;;;;;10.48;2.53;;;;;;;;;;5010237;28;20105;-75
2022/11/10 11:20:49;;;;;;;12.70;3.20;;;;;;;;;;5012716;28;20022;-75
2022/11/10 11:23:42;;;;;;;12.93;2.42;;;;;;;;;;5009957;28;20490;-74
2022/11/10 11:26:28;;;;;;;10.23;2.42;;;;;;;;;;5010121;28;20100;-75
2022/11/10 11:29:32;;;;;;;10.32;2.88;;;;;;;;;;5017379;28;20033;-74
2022/11/10 11:32:16;;;;;;;10.55;4.65;;;;;;;;;;4994163;28;20042;-74
2022/11/10 11:35:08;;;;;;;16.02;3.58;;;;;;;;;;5013934;28;20045;-75
2022/11/10 11:37:46;;;;;;;8.98;3.10;;;;;;;;;;5014729;28;20026;-74
2022/11/10 11:40:39;;;;;;;12.40;2.75;;;;;;;;;;4998128;28;20066;-74
2022/11/10 11:43:20;;;;;;;11.52;2.60;;;;;;;;;;5019486;28;20449;-73
2022/11/10 11:45:56;;;;;;;8.80;2.10;;;;;;;;;;5016632;28;20067;-73
2022/11/10 11:48:40;;;;;;;8.98;1.98;;;;;;;;;;5020926;28;20260;-73
2022/11/10 11:51:20;;;;;;;13.07;2.55;;;;;;;;;;5020810;28;20034;-72
2022/11/10 11:54:08;;;;;;;10.88;2.72;;;;;;;;;;4994317;28;20057;-72
2022/11/10 11:56:40;;;;;;;9.60;2.30;;;;;;;;;;5009129;28;20053;-72
2022/11/10 11:59:25;;;;;;;12.38;2.22;;;;;;;;;;5009459;28;20490;-71
2022/11/10 12:02:28;;;;;;;10.88;2.30;;;;;;;;;;5008645;28;20113;-71
2022/11/10 12:04:56;;;;;;;14.02;2.55;;;;;;;;;;5009409;28;20110;-73
2022/11/10 12:07:34;;;;;;;14.15;3.05;;;;;;;;;;5009831;28;20505;-73
2022/11/10 12:10:21;;;;;;;13.75;3.15;;;;;;;;;;5013797;28;20029;-72
2022/11/10 12:12:58;;;;;;;30.98;4.20;;;;;;;;;;5014391;28;20345;-71
2022/11/10 12:15:58;;;;;;;11.30;4.10;;;;;;;;;;4995858;28;20088;-71
2022/11/10 12:18:35;;;;;;;15.40;3.67;;;;;;;;;;5016610;28;20022;-71
2022/11/10 12:21:03;;;;;;;11.73;2.22;;;;;;;;;;5014844;28;20030;-74
2022/11/10 12:23:47;;;;;;;15.75;1.98;;;;;;;;;;5010115;28;20033;-72
2022/11/10 12:26:15;;;;;;;10.60;1.90;;;;;;;;;;5012284;28;20033;-73
2022/11/10 12:28:46;;;;;;;9.82;1.92;;;;;;;;;;5012804;28;20022;-74
2022/11/10 12:31:17;;;;;;;;;;;;;;;;;;5013877;28;20030;-75
2022/11/10 12:34:03;;;;;;;8.65;1.90;;;;;;;;;;5013939;28;20325;-74
2022/11/10 12:36:30;;;;;;;9.82;1.80;;;;;;;;;;5018001;28;20029;-76
2022/11/10 12:39:13;;;;;;;8.00;1.60;;;;;;;;;;5024212;28;20149;-73
2022/11/10 12:41:44;;;;;;;7.97;2.10;;;;;;;;;;5024155;28;20033;-70
2022/11/10 12:44:36;;;;;;;9.57;2.10;;;;;;;;;;5005925;28;20040;-74
2022/11/10 12:47:05;;;;;;;10.13;2.30;;;;;;;;;;5023549;28;20072;-75
2022/11/10 12:49:36;;;;;;;8.23;1.93;;;;;;;;;;5015092;28;20036;-76
2022/11/10 12:52:22;;;;;;;8.63;1.80;;;;;;;;;;4995283;28;20029;-73
2022/11/10 12:54:48;;;;;;;11.68;2.10;;;;;;;;;;4994936;28;20021;-75
2022/11/10 12:57:19;;;;;;;7.47;1.50;;;;;;;;;;5013679;28;20109;-72
2022/11/10 13:00:01;;;;;;;7.90;1.73;;;;;;;;;;5012432;28;20026;-72
2022/11/10 13:02:39;;;;;;;9.65;1.95;;;;;;;;;;5023618;28;20030;-74
2022/11/10 13:05:14;;;;;;;8.32;1.65;;;;;;;;;;5023341;28;20042;-72
2022/11/10 13:07:48;;;;;;;9.52;1.77;;;;;;;;;;5006383;28;20226;-74
2022/11/10 13:10:26;;;;;;;9.55;1.80;;;;;;;;;;4999848;28;20160;-74
2022/11/10 13:13:04;;;;;;;25.23;2.88;;;;;;;;;;5020885;28;20329;-75
2022/11/10 13:15:51;;;;;;;19.50;2.60;;;;;;;;;;5005997;28;20021;-74
2022/11/10 13:18:51;;;;;;;19.00;2.90;;;;;;;;;;5023578;28;20026;-76
2022/11/10 13:21:16;;;;;;;12.17;2.93;;;;;;;;;;5022329;28;20045;-79
2022/11/10 13:23:42;;;;;;;9.75;2.40;;;;;;;;;;5016824;28;20226;-76
2022/11/10 13:26:31;;;;;;;11.23;2.35;;;;;;;;;;5013201;28;20029;-74
2022/11/10 13:28:59;;;;;;;8.13;1.77;;;;;;;;;;5011755;28;20033;-78
2022/11/10 13:31:28;;;;;;;10.23;1.77;;;;;;;;;;5011832;28;20030;-73
2022/11/10 13:34:09;;;;;;;6.70;1.80;;;;;;;;;;5011860;28;20474;-73
2022/11/10 13:36:53;;;;;;;8.25;1.70;;;;;;;;;;5012701;28;20096;-72
2022/11/10 13:39:18;;;;;;;6.47;1.60;;;;;;;;;;5011790;28;20037;-72
2022/11/10 13:42:10;;;;;;;9.30;1.77;;;;;;;;;;5011803;28;20026;-71
2022/11/10 13:44:38;;;;;;;9.77;1.70;;;;;;;;;;5008349;28;20057;-71
2022/11/10 13:47:15;;;;;;;9.15;1.88;;;;;;;;;;5011862;28;20054;-71
2022/11/10 13:50:24;;;;;;;5.18;1.50;;;;;;;;;;5011388;28;20030;-70
2022/11/10 13:53:10;;;;;;;10.20;1.67;;;;;;;;;;5011504;28;20025;-71
2022/11/10 13:55:54;;;;;;;6.85;1.73;;;;;;;;;;4995717;28;20037;-71
2022/11/10 13:58:31;;;;;;;8.30;1.50;;;;;;;;;;5012076;28;20037;-70
2022/11/10 14:01:29;;;;;;;6.65;1.50;;;;;;;;;;5011303;28;20092;-71
2022/11/10 14:04:00;;;;;;;8.25;1.40;;;;;;;;;;4986425;28;20037;-72
2022/11/10 14:06:37;;;;;;;;;;;;;;;;;;5014141;28;20026;-72
2022/11/10 14:09:13;;;;;;;7.53;1.80;;;;;;;;;;5012167;28;19972;-73
2022/11/10 14:11:49;;;;;;;9.43;1.33;;;;;;;;;;4998863;28;20064;-73
2022/11/10 14:14:24;;;;;;;8.10;1.75;;;;;;;;;;5011310;28;20034;-73
2022/11/10 14:16:52;;;;;;;9.55;1.80;;;;;;;;;;5013067;28;20033;-71
2022/11/10 14:19:26;;;;;;;8.65;1.48;;;;;;;;;;5022066;28;20026;-72
2022/11/10 14:21:55;;;;;;;4.75;1.40;;;;;;;;;;5021941;28;20376;-71
2022/11/10 14:24:33;;;;;;;11.43;2.03;;;;;;;;;;4997375;28;20030;-72
2022/11/10 14:27:11;;;;;;;10.45;1.50;;;;;;;;;;5019867;28;20096;-73
2022/11/10 14:29:39;;;;;;;9.43;1.48;;;;;;;;;;5020092;28;20623;-76
2022/11/10 14:32:25;;;;;;;6.25;1.40;;;;;;;;;;5007439;28;20034;-74
2022/11/10 14:34:53;;;;;;;6.28;1.30;;;;;;;;;;5011457;28;20113;-72
2022/11/10 14:37:24;;;;;;;5.97;1.40;;;;;;;;;;5008279;28;20021;-73
2022/11/10 14:39:55;;;;;;;6.03;1.20;;;;;;;;;;4999360;28;20116;-71
2022/11/10 14:42:24;;;;;;;7.80;1.25;;;;;;;;;;5011732;28;20486;-72
2022/11/10 14:45:03;;;;;;;5.57;1.45;;;;;;;;;;4996965;28;20417;-72
2022/11/10 14:47:34;;;;;;;6.32;1.10;;;;;;;;;;5012487;28;20068;-74
2022/11/10 14:50:12;;;;;;;6.32;1.42;;;;;;;;;;4997767;28;20065;-75
2022/11/10 14:52:40;;;;;;;6.85;1.38;;;;;;;;;;5017729;28;20575;-74
2022/11/10 14:55:12;;;;;;;7.22;2.03;;;;;;;;;;5010022;28;20080;-73
2022/11/10 14:57:38;;;;;;;6.45;1.55;;;;;;;;;;5007879;28;20026;-74
2022/11/10 15:00:14;;;;;;;6.85;1.67;;;;;;;;;;5011579;28;20061;-76
2022/11/10 15:02:39;;;;;;;5.13;1.35;;;;;;;;;;4991354;28;20481;-75
2022/11/10 15:05:08;;;;;;;6.75;1.70;;;;;;;;;;5009756;28;20634;-73
2022/11/10 15:07:34;;;;;;;11.20;1.40;;;;;;;;;;5010078;28;20037;-73
2022/11/10 15:10:42;;;;;;;8.00;1.50;;;;;;;;;;5009124;28;20022;-73